< Typhoon 199412 1994 Season Typhoon 199414 >
Typhoon 199413 (DOUG)
General InformationTrack Information on Google MapsDetailed Wind InformationList of All Images || NewsDisaster Info.ResourceGoogle EarthGE AnimationAtom FeedGeoJSON
Detalied Best Track (Time Zone = UTC)
Year Month Day Hour Lat. Long. Pressure (hPa) Wind (kt) Class Image Chart
1994 8 1 06 15.0 144.0 1006 0 2 Image Chart
1994 8 1 12 14.8 143.4 1008 0 2 Image Chart
1994 8 1 18 14.8 142.6 1006 0 2 Image Chart
1994 8 2 00 15.0 141.8 1004 0 2 Image Chart
1994 8 2 06 15.2 141.2 1004 0 2 Image Chart
1994 8 2 12 15.4 140.6 1002 0 2 Image Chart
1994 8 2 18 15.4 140.0 1000 35 3 Image Chart
1994 8 3 00 15.4 139.6 996 40 3 Image Chart
1994 8 3 06 15.4 139.2 990 45 3 Image Chart
1994 8 3 12 15.4 138.4 985 50 4 Image Chart
1994 8 3 18 15.5 137.6 980 55 4 Image Chart
1994 8 4 00 15.4 136.1 975 60 4 Image Chart
1994 8 4 06 15.2 135.1 970 65 5 Image Chart
1994 8 4 12 15.0 134.0 960 75 5 Image Chart
1994 8 4 18 15.1 133.1 955 80 5 Image Chart
1994 8 5 00 15.3 132.1 950 85 5 Image Chart
1994 8 5 06 15.8 131.0 945 90 5 Image Chart
1994 8 5 12 16.3 129.7 935 95 5 Image Chart
1994 8 5 18 16.9 128.4 930 95 5 Image Chart
1994 8 6 00 17.5 127.3 925 100 5 Image Chart
1994 8 6 06 18.2 126.3 925 100 5 Image Chart
1994 8 6 12 19.1 125.4 925 100 5 Image Chart
1994 8 6 18 20.0 124.5 930 95 5 Image Chart
1994 8 7 00 20.9 123.7 935 95 5 Image Chart
1994 8 7 03 21.5 123.5 935 95 5 Image Chart
1994 8 7 06 22.2 123.3 935 95 5 Image Chart
1994 8 7 09 23.0 123.1 935 95 5 Image Chart
1994 8 7 12 23.6 122.8 935 95 5 Image Chart
1994 8 7 15 24.4 122.5 935 95 5 Image Chart
1994 8 7 18 24.8 122.1 940 90 5 Image Chart
1994 8 7 21 25.1 122.0 945 85 5 Image Chart
1994 8 8 00 25.6 121.8 950 85 5 Image Chart
1994 8 8 03 26.0 121.7 950 85 5 Image Chart
1994 8 8 06 26.6 121.7 955 80 5 Image Chart
1994 8 8 12 27.2 121.9 960 75 5 Image Chart
1994 8 8 18 28.0 122.4 965 70 5 Image Chart
1994 8 9 00 29.0 122.9 970 65 5 Image Chart
1994 8 9 06 30.2 123.3 975 60 4 Image Chart
1994 8 9 12 31.0 123.4 980 55 4 Image Chart
1994 8 9 18 31.9 123.6 985 50 4 Image Chart
1994 8 10 00 32.8 123.8 985 45 3 Image Chart
1994 8 10 06 33.4 124.0 985 45 3 Image Chart
1994 8 10 12 33.7 124.5 985 45 3 Image Chart
1994 8 10 18 33.9 125.0 985 45 3 Image Chart
1994 8 11 00 34.0 125.4 990 40 3 Image Chart
1994 8 11 06 34.0 125.7 990 40 3 Image Chart
1994 8 11 12 33.9 125.4 992 40 3 Image Chart
1994 8 11 18 34.0 125.0 992 40 3 Image Chart
1994 8 12 00 33.9 124.4 994 35 3 Image Chart
1994 8 12 06 33.5 123.3 994 35 3 Image Chart
1994 8 12 12 32.9 122.1 996 0 2 Image Chart
1994 8 12 18 32.3 121.0 998 0 2 Image Chart
1994 8 13 00 31.7 119.9 1000 0 2 Image Chart
Japan Meteorological Agency Best Track Data | Correction Date : 1995-01-30
< Typhoon 199412 1994 Season Typhoon 199414 >

Help